createdAt,value
2023-04-30T00:00:23.465Z,3.07
2023-04-30T00:03:10.683Z,2.97
2023-04-30T00:05:57.877Z,3.05
2023-04-30T00:08:44.959Z,3.06
2023-04-30T00:11:32.079Z,3.05
2023-04-30T00:14:19.073Z,3.06
2023-04-30T00:17:06.179Z,2.91
2023-04-30T00:19:53.364Z,3.06
2023-04-30T00:22:40.649Z,3.03
2023-04-30T00:25:27.914Z,2.87
2023-04-30T00:28:15.109Z,3.06
2023-04-30T00:31:02.347Z,3.05
2023-04-30T00:33:49.317Z,3.05
2023-04-30T00:36:36.376Z,3.05
2023-04-30T00:39:23.903Z,3.03
2023-04-30T00:42:10.960Z,3.02
2023-04-30T00:44:58.007Z,2.98
2023-04-30T00:47:45.397Z,2.97
2023-04-30T00:50:32.448Z,2.88
2023-04-30T00:53:20.031Z,2.69
2023-04-30T00:56:08.791Z,2.97
2023-04-30T00:58:55.775Z,2.82
2023-04-30T01:01:47.501Z,2.97
2023-04-30T01:04:34.726Z,2.99
2023-04-30T01:07:22.350Z,2.89
2023-04-30T01:10:09.509Z,2.99
2023-04-30T01:13:23.266Z,3.00
2023-04-30T01:16:22.747Z,3.03
2023-04-30T01:19:16.903Z,3.01
2023-04-30T01:22:04.069Z,3.04
2023-04-30T01:25:13.039Z,3.01
2023-04-30T01:28:29.443Z,3.06
2023-04-30T01:31:18.534Z,3.07
2023-04-30T01:34:05.622Z,3.03
2023-04-30T01:37:01.952Z,3.07
2023-04-30T01:40:27.502Z,3.11
2023-04-30T01:43:45.377Z,3.10
2023-04-30T01:46:41.955Z,3.12
2023-04-30T01:49:57.699Z,3.11
2023-04-30T01:52:58.835Z,3.12
2023-04-30T01:56:19.906Z,3.12
2023-04-30T01:59:08.986Z,3.12
2023-04-30T02:01:56.961Z,2.83
2023-04-30T02:04:44.249Z,3.07
2023-04-30T02:07:32.471Z,2.88
2023-04-30T02:10:19.482Z,3.04
2023-04-30T02:13:06.653Z,2.85
2023-04-30T02:15:53.707Z,3.02
2023-04-30T02:18:40.817Z,3.00
2023-04-30T02:21:28.026Z,2.99
2023-04-30T02:24:15.007Z,2.99
2023-04-30T02:27:02.268Z,2.98
2023-04-30T02:29:49.191Z,2.97
2023-04-30T02:32:36.907Z,2.95
2023-04-30T02:35:24.140Z,2.92
2023-04-30T02:38:11.184Z,2.43
2023-04-30T02:40:58.269Z,2.45
2023-04-30T02:43:45.502Z,2.86
2023-04-30T02:46:32.551Z,2.83
2023-04-30T02:49:19.792Z,2.20
2023-04-30T02:52:06.951Z,2.75
2023-04-30T02:54:54.192Z,2.71
2023-04-30T02:57:41.166Z,2.66
2023-04-30T03:00:28.860Z,2.63
2023-04-30T03:03:16.066Z,2.56
2023-04-30T03:06:04.393Z,2.56
2023-04-30T03:08:51.537Z,2.48
2023-04-30T03:11:38.726Z,2.45
2023-04-30T03:14:25.742Z,2.40
2023-04-30T03:17:12.784Z,2.27
2023-04-30T03:19:59.836Z,2.34
2023-04-30T03:22:47.222Z,2.23
2023-04-30T03:25:34.497Z,2.20
2023-04-30T03:28:21.648Z,2.13
2023-04-30T03:31:08.884Z,2.08
2023-04-30T03:33:56.131Z,2.02
2023-04-30T03:36:43.186Z,1.95
2023-04-30T03:39:30.498Z,1.92
2023-04-30T03:42:17.509Z,1.89
2023-04-30T03:45:04.602Z,1.89
2023-04-30T03:47:51.962Z,1.86
2023-04-30T03:50:39.811Z,1.68
2023-04-30T03:53:27.082Z,1.79
2023-04-30T03:56:14.816Z,1.81
2023-04-30T03:59:02.688Z,1.79
2023-04-30T04:01:51.518Z,1.76
2023-04-30T04:04:38.865Z,1.73
2023-04-30T04:07:26.002Z,1.70
2023-04-30T04:10:12.969Z,1.67
2023-04-30T04:13:00.056Z,1.64
2023-04-30T04:15:47.377Z,1.53
2023-04-30T04:18:34.642Z,1.26
2023-04-30T04:21:21.812Z,1.66
2023-04-30T04:24:08.817Z,1.12
2023-04-30T04:26:56.927Z,1.67
2023-04-30T04:29:43.867Z,1.67
2023-04-30T04:32:30.999Z,1.66
2023-04-30T04:35:18.644Z,1.69
2023-04-30T04:38:05.702Z,1.70
2023-04-30T04:40:53.290Z,1.69
2023-04-30T04:43:40.830Z,1.76
2023-04-30T04:46:27.897Z,1.79
2023-04-30T04:49:14.945Z,1.69
2023-04-30T04:52:02.090Z,1.84
2023-04-30T04:54:49.220Z,1.31
2023-04-30T04:57:36.278Z,1.85
2023-04-30T05:00:23.542Z,1.83
2023-04-30T05:03:10.846Z,1.98
2023-04-30T05:05:57.959Z,2.03
2023-04-30T05:08:46.054Z,2.04
2023-04-30T05:11:33.063Z,2.15
2023-04-30T05:14:20.134Z,1.75
2023-04-30T05:17:07.636Z,2.28
2023-04-30T05:19:54.829Z,2.36
2023-04-30T05:22:42.128Z,2.42
2023-04-30T05:25:29.646Z,2.08
2023-04-30T05:28:17.236Z,2.57
2023-04-30T05:31:04.529Z,2.64
2023-04-30T05:33:51.459Z,2.70
2023-04-30T05:36:38.620Z,2.81
2023-04-30T05:39:25.686Z,2.89
2023-04-30T05:42:12.843Z,2.77
2023-04-30T05:45:01.467Z,2.89
2023-04-30T05:47:48.987Z,3.15
2023-04-30T05:50:36.206Z,3.27
2023-04-30T05:53:23.562Z,3.23
2023-04-30T05:56:10.953Z,3.47
2023-04-30T05:58:59.036Z,3.55
2023-04-30T06:01:45.949Z,3.70
2023-04-30T06:04:33.438Z,3.82
2023-04-30T06:07:20.356Z,3.89
2023-04-30T06:10:07.670Z,4.04
2023-04-30T06:12:54.884Z,4.17
2023-04-30T06:15:42.542Z,4.28
2023-04-30T06:18:29.557Z,4.37
2023-04-30T06:21:16.686Z,4.48
2023-04-30T06:24:03.523Z,4.24
2023-04-30T06:26:50.803Z,4.65
2023-04-30T06:29:37.727Z,4.80
2023-04-30T06:32:25.305Z,4.91
2023-04-30T06:35:12.672Z,4.86
2023-04-30T06:37:59.881Z,5.12
2023-04-30T06:40:46.888Z,5.16
2023-04-30T06:43:34.049Z,5.34
2023-04-30T06:46:21.282Z,5.24
2023-04-30T06:49:08.363Z,5.45
2023-04-30T06:51:55.293Z,5.45
2023-04-30T06:54:42.939Z,5.78
2023-04-30T06:57:30.065Z,5.86
2023-04-30T07:00:17.289Z,5.91
2023-04-30T07:03:04.579Z,6.05
2023-04-30T07:05:52.066Z,6.16
2023-04-30T07:08:38.973Z,6.25
2023-04-30T07:11:26.053Z,6.31
2023-04-30T07:14:13.214Z,6.39
2023-04-30T07:17:00.325Z,6.45
2023-04-30T07:19:47.326Z,6.51
2023-04-30T07:22:34.439Z,6.57
2023-04-30T07:25:21.692Z,6.48
2023-04-30T07:28:08.720Z,6.70
2023-04-30T07:30:55.711Z,6.76
2023-04-30T07:33:42.814Z,6.83
2023-04-30T07:36:29.993Z,6.89
2023-04-30T07:39:16.943Z,6.97
2023-04-30T07:42:03.975Z,6.63
2023-04-30T07:44:51.838Z,7.07
2023-04-30T07:47:39.236Z,6.94
2023-04-30T07:50:26.851Z,7.20
2023-04-30T07:53:14.058Z,7.24
2023-04-30T07:56:01.209Z,7.29
2023-04-30T07:58:48.316Z,7.35
2023-04-30T08:01:35.823Z,7.18
2023-04-30T08:04:22.909Z,7.45
2023-04-30T08:07:10.019Z,7.48
2023-04-30T08:09:57.321Z,7.38
2023-04-30T08:12:44.630Z,7.26
